Time,TemperatureF,DewpointF,PressureIn,WindDirection,WindDirectionDegrees,WindSpeedMPH,WindSpeedGustMPH,Humidity,HourlyPrecipIn,Conditions,Clouds,dailyrainin,SoftwareType,DateUTC
2013-02-03 00:03:00,-7.0,-11.0,-100.00,NE,40,0.0,4.0,80,-99.99,,,-99.99,,2013-02-03 05:03:00,
2013-02-03 00:12:00,-7.0,-11.0,-100.00,NE,40,0.0,4.0,80,-99.99,,,-99.99,,2013-02-03 05:12:00,
2013-02-03 00:22:00,-6.0,-10.0,-100.00,WNW,290,1.0,1.0,80,-99.99,,,-99.99,,2013-02-03 05:22:00,
2013-02-03 00:32:00,-5.0,-10.0,-100.00,SW,225,0.0,1.0,80,-99.99,,,-99.99,,2013-02-03 05:32:00,
2013-02-03 00:42:00,-5.0,-10.0,-100.00,SW,225,0.0,1.0,80,-99.99,,,-99.99,,2013-02-03 05:42:00,
2013-02-03 00:52:00,-6.0,-10.0,-100.00,South,180,1.0,2.0,80,-99.99,,,-99.99,,2013-02-03 05:52:00,
2013-02-03 01:02:00,-4.0,-9.0,-100.00,SSE,165,1.0,2.0,80,-99.99,,,-99.99,,2013-02-03 06:02:00,
2013-02-03 01:11:00,-4.0,-9.0,-100.00,SSE,165,1.0,2.0,80,-99.99,,,-99.99,,2013-02-03 06:11:00,
2013-02-03 01:21:00,-4.0,-9.0,-100.00,West,275,1.0,2.0,80,-99.99,,,-99.99,,2013-02-03 06:21:00,
2013-02-03 01:32:00,-3.0,-8.0,-100.00,SW,220,1.0,2.0,80,-99.99,,,-99.99,,2013-02-03 06:32:00,
2013-02-03 01:42:00,-3.0,-8.0,-100.00,SW,220,1.0,2.0,80,-99.99,,,-99.99,,2013-02-03 06:42:00,
2013-02-03 01:52:00,-2.0,-7.0,-100.00,West,270,0.0,2.0,80,-99.99,,,-99.99,,2013-02-03 06:52:00,
2013-02-03 02:01:00,-1.0,-6.0,-100.00,WSW,255,1.0,1.0,80,-99.99,,,-99.99,,2013-02-03 07:01:00,
2013-02-03 02:11:00,-1.0,-6.0,-100.00,WSW,255,1.0,1.0,80,-99.99,,,-99.99,,2013-02-03 07:11:00,
2013-02-03 02:21:00,-1.0,-5.0,-100.00,West,265,1.0,4.0,81,-99.99,,,-99.99,,2013-02-03 07:21:00,
2013-02-03 02:31:00,0.0,-4.0,-100.00,SW,220,2.0,4.0,81,-99.99,,,-99.99,,2013-02-03 07:31:00,
2013-02-03 02:42:00,0.0,-4.0,-100.00,SW,220,2.0,4.0,81,-99.99,,,-99.99,,2013-02-03 07:42:00,
2013-02-03 02:52:00,0.0,-4.0,-100.00,SSW,205,4.0,4.0,81,-99.99,,,-99.99,,2013-02-03 07:52:00,
2013-02-03 03:01:00,2.0,-3.0,-100.00,WSW,240,4.0,6.0,81,-99.99,,,-99.99,,2013-02-03 08:01:00,
2013-02-03 03:11:00,2.0,-3.0,-100.00,WSW,240,4.0,6.0,81,-99.99,,,-99.99,,2013-02-03 08:11:00,
2013-02-03 03:22:00,4.0,0.0,-100.00,WSW,245,7.0,9.0,81,-99.99,,,-99.99,,2013-02-03 08:22:00,
2013-02-03 03:32:00,5.0,0.0,-100.00,SW,235,4.0,8.0,79,-99.99,,,-99.99,,2013-02-03 08:32:00,
2013-02-03 03:41:00,5.0,0.0,-100.00,SW,235,4.0,8.0,79,-99.99,,,-99.99,,2013-02-03 08:41:00,
2013-02-03 03:52:00,5.0,0.0,-100.00,SW,220,2.0,6.0,78,-99.99,,,-99.99,,2013-02-03 08:52:00,
2013-02-03 04:02:00,5.0,0.0,-100.00,SW,235,4.0,5.0,78,-99.99,,,-99.99,,2013-02-03 09:02:00,
2013-02-03 04:11:00,5.0,0.0,-100.00,SW,235,4.0,5.0,78,-99.99,,,-99.99,,2013-02-03 09:11:00,
2013-02-03 04:21:00,5.0,0.0,-100.00,SW,220,4.0,7.0,78,-99.99,,,-99.99,,2013-02-03 09:21:00,
2013-02-03 04:31:00,6.0,0.0,-100.00,West,270,2.0,5.0,78,-99.99,,,-99.99,,2013-02-03 09:31:00,
2013-02-03 04:42:00,6.0,0.0,-100.00,West,270,2.0,5.0,78,-99.99,,,-99.99,,2013-02-03 09:42:00,
2013-02-03 04:51:00,5.0,0.0,-100.00,SW,225,1.0,4.0,78,-99.99,,,-99.99,,2013-02-03 09:51:00,
2013-02-03 05:01:00,5.0,-1.0,-100.00,SW,230,0.0,1.0,78,-99.99,,,-99.99,,2013-02-03 10:01:00,
2013-02-03 05:11:00,5.0,-1.0,-100.00,SW,230,0.0,1.0,78,-99.99,,,-99.99,,2013-02-03 10:11:00,
2013-02-03 05:21:00,5.0,0.0,-100.00,WSW,250,1.0,2.0,78,-99.99,,,-99.99,,2013-02-03 10:21:00,
2013-02-03 05:31:00,5.0,0.0,-100.00,SW,235,2.0,4.0,79,-99.99,,,-99.99,,2013-02-03 10:31:00,
2013-02-03 05:42:00,5.0,0.0,-100.00,SW,235,2.0,4.0,79,-99.99,,,-99.99,,2013-02-03 10:42:00,
2013-02-03 05:52:00,6.0,1.0,-100.00,West,260,2.0,5.0,80,-99.99,,,-99.99,,2013-02-03 10:52:00,
2013-02-03 06:02:00,7.0,3.0,-100.00,West,270,6.0,7.0,81,-99.99,,,-99.99,,2013-02-03 11:02:00,
2013-02-03 06:11:00,7.0,3.0,-100.00,West,270,6.0,7.0,81,-99.99,,,-99.99,,2013-02-03 11:11:00,
2013-02-03 06:22:00,8.0,3.0,-100.00,West,265,5.0,7.0,82,-99.99,,,-99.99,,2013-02-03 11:22:00,
2013-02-03 06:32:00,8.0,4.0,-100.00,West,280,5.0,9.0,83,-99.99,,,-99.99,,2013-02-03 11:32:00,
2013-02-03 06:42:00,8.0,4.0,-100.00,West,280,5.0,9.0,83,-99.99,,,-99.99,,2013-02-03 11:42:00,
2013-02-03 06:52:00,8.0,4.0,-100.00,West,270,6.0,9.0,83,-99.99,,,-99.99,,2013-02-03 11:52:00,
2013-02-03 07:02:00,8.0,5.0,-100.00,West,260,6.0,10.0,84,-99.99,,,-99.99,,2013-02-03 12:02:00,
2013-02-03 07:11:00,8.0,5.0,-100.00,West,260,6.0,10.0,84,-99.99,,,-99.99,,2013-02-03 12:11:00,
2013-02-03 07:22:00,9.0,5.0,-100.00,West,280,4.0,9.0,84,-99.99,,,-99.99,,2013-02-03 12:22:00,
2013-02-03 07:32:00,9.0,5.0,-100.00,West,280,6.0,9.0,84,-99.99,,,-99.99,,2013-02-03 12:32:00,
2013-02-03 07:42:00,9.0,5.0,-100.00,West,280,6.0,9.0,84,-99.99,,,-99.99,,2013-02-03 12:42:00,
2013-02-03 07:53:00,9.0,5.0,-100.00,WNW,285,5.0,7.0,84,-99.99,,,-99.99,,2013-02-03 12:53:00,
2013-02-03 08:03:00,9.0,5.0,-100.00,West,265,4.0,6.0,84,-99.99,,,-99.99,,2013-02-03 13:03:00,
2013-02-03 08:11:00,9.0,5.0,-100.00,West,265,4.0,6.0,84,-99.99,,,-99.99,,2013-02-03 13:11:00,
2013-02-03 08:21:00,9.0,5.0,-100.00,West,270,4.0,8.0,84,-99.99,,,-99.99,,2013-02-03 13:21:00,
2013-02-03 08:32:00,10.0,6.0,-100.00,West,280,5.0,9.0,84,-99.99,,,-99.99,,2013-02-03 13:32:00,
2013-02-03 08:42:00,10.0,6.0,-100.00,West,280,5.0,9.0,84,-99.99,,,-99.99,,2013-02-03 13:42:00,
2013-02-03 08:52:00,10.0,6.0,-100.00,West,275,6.0,10.0,83,-99.99,,,-99.99,,2013-02-03 13:52:00,
2013-02-03 09:02:00,10.0,6.0,-100.00,WNW,285,6.0,10.0,82,-99.99,,,-99.99,,2013-02-03 14:02:00,
2013-02-03 09:11:00,10.0,6.0,-100.00,WNW,285,6.0,10.0,82,-99.99,,,-99.99,,2013-02-03 14:11:00,
2013-02-03 09:20:00,11.0,6.0,-100.00,WNW,290,5.0,11.0,80,-99.99,,,-99.99,,2013-02-03 14:20:00,
2013-02-03 09:21:00,10.0,6.0,-100.00,WNW,285,6.0,9.0,82,-99.99,,,-99.99,,2013-02-03 14:21:00,
2013-02-03 09:32:00,11.0,6.0,-100.00,WNW,290,6.0,11.0,82,-99.99,,,-99.99,,2013-02-03 14:32:00,
2013-02-03 09:42:00,11.0,6.0,-100.00,WNW,290,6.0,11.0,82,-99.99,,,-99.99,,2013-02-03 14:42:00,
2013-02-03 09:52:00,11.0,6.0,-100.00,WNW,290,6.0,9.0,81,-99.99,,,-99.99,,2013-02-03 14:52:00,
2013-02-03 10:03:00,11.0,6.0,-100.00,WNW,290,5.0,11.0,80,-99.99,,,-99.99,,2013-02-03 15:03:00,
2013-02-03 10:11:00,11.0,6.0,-100.00,WNW,290,5.0,11.0,80,-99.99,,,-99.99,,2013-02-03 15:11:00,
2013-02-03 11:11:00,14.0,7.0,-100.00,NW,315,11.0,19.0,74,-99.99,,,-99.99,,2013-02-03 16:11:00,
2013-02-03 11:22:00,15.0,8.0,-100.00,WNW,300,11.0,21.0,72,-99.99,,,-99.99,,2013-02-03 16:22:00,
2013-02-03 11:33:00,16.0,8.0,-100.00,NW,315,6.0,16.0,71,-99.99,,,-99.99,,2013-02-03 16:33:00,
2013-02-03 11:42:00,16.0,8.0,-100.00,NW,315,6.0,16.0,71,-99.99,,,-99.99,,2013-02-03 16:42:00,
2013-02-03 11:52:00,17.0,8.0,-100.00,North,350,10.0,18.0,68,-99.99,,,-99.99,,2013-02-03 16:52:00,
2013-02-03 12:02:00,17.0,7.0,-100.00,NW,325,11.0,21.0,64,-99.99,,,-99.99,,2013-02-03 17:02:00,
2013-02-03 12:11:00,17.0,7.0,-100.00,NW,325,11.0,21.0,64,-99.99,,,-99.99,,2013-02-03 17:11:00,
2013-02-03 12:22:00,17.0,6.0,-100.00,North,350,13.0,24.0,62,-99.99,,,-99.99,,2013-02-03 17:22:00,
2013-02-03 12:32:00,16.0,7.0,-100.00,NNW,335,16.0,19.0,67,-99.99,,,-99.99,,2013-02-03 17:32:00,
2013-02-03 12:42:00,16.0,7.0,-100.00,NNW,335,16.0,19.0,67,-99.99,,,-99.99,,2013-02-03 17:42:00,
2013-02-03 12:52:00,16.0,7.0,-100.00,North,5,13.0,21.0,67,-99.99,,,-99.99,,2013-02-03 17:52:00,
2013-02-03 13:03:00,17.0,5.0,-100.00,NNW,340,9.0,21.0,59,-99.99,,,-99.99,,2013-02-03 18:03:00,
2013-02-03 13:12:00,17.0,5.0,-100.00,NNW,340,9.0,21.0,59,-99.99,,,-99.99,,2013-02-03 18:12:00,
2013-02-03 13:23:00,18.0,5.0,-100.00,North,350,10.0,28.0,57,-99.99,,,-99.99,,2013-02-03 18:23:00,
2013-02-03 13:33:00,15.0,5.0,-100.00,North,350,11.0,25.0,64,-99.99,,,-99.99,,2013-02-03 18:33:00,
2013-02-03 13:42:00,15.0,5.0,-100.00,North,350,11.0,25.0,64,-99.99,,,-99.99,,2013-02-03 18:42:00,
2013-02-03 13:51:00,16.0,5.0,-100.00,NNW,340,15.0,21.0,62,-99.99,,,-99.99,,2013-02-03 18:51:00,
2013-02-03 14:02:00,18.0,3.0,-100.00,NW,315,9.0,21.0,53,-99.99,,,-99.99,,2013-02-03 19:02:00,
2013-02-03 14:11:00,18.0,3.0,-100.00,NW,315,9.0,21.0,53,-99.99,,,-99.99,,2013-02-03 19:11:00,
2013-02-03 14:22:00,14.0,7.0,-100.00,North,5,11.0,21.0,72,-99.99,,,-99.99,,2013-02-03 19:22:00,
2013-02-03 14:32:00,15.0,3.0,-100.00,NW,315,14.0,22.0,57,-99.99,,,-99.99,,2013-02-03 19:32:00,
2013-02-03 14:42:00,15.0,3.0,-100.00,NW,315,14.0,22.0,57,-99.99,,,-99.99,,2013-02-03 19:42:00,
2013-02-03 14:51:00,16.0,5.0,-100.00,NW,325,11.0,24.0,61,-99.99,,,-99.99,,2013-02-03 19:51:00,
2013-02-03 15:01:00,16.0,5.0,-100.00,NNW,330,9.0,21.0,63,-99.99,,,-99.99,,2013-02-03 20:01:00,
2013-02-03 15:12:00,16.0,5.0,-100.00,NNW,330,9.0,21.0,63,-99.99,,,-99.99,,2013-02-03 20:12:00,
2013-02-03 15:21:00,15.0,2.0,-100.00,NNW,345,17.0,26.0,55,-99.99,,,-99.99,,2013-02-03 20:21:00,
2013-02-03 15:33:00,17.0,2.0,-100.00,NW,325,12.0,26.0,52,-99.99,,,-99.99,,2013-02-03 20:33:00,
2013-02-03 15:42:00,17.0,2.0,-100.00,NW,325,12.0,26.0,52,-99.99,,,-99.99,,2013-02-03 20:42:00,
2013-02-03 15:52:00,17.0,3.0,-100.00,NW,310,11.0,23.0,54,-99.99,,,-99.99,,2013-02-03 20:52:00,
2013-02-03 16:03:00,15.0,3.0,-100.00,NW,315,14.0,26.0,59,-99.99,,,-99.99,,2013-02-03 21:03:00,
2013-02-03 16:11:00,15.0,3.0,-100.00,NW,315,14.0,26.0,59,-99.99,,,-99.99,,2013-02-03 21:11:00,
2013-02-03 16:21:00,14.0,4.0,-100.00,NNW,345,12.0,20.0,63,-99.99,,,-99.99,,2013-02-03 21:21:00,
2013-02-03 16:32:00,15.0,2.0,-100.00,NW,325,7.0,24.0,54,-99.99,,,-99.99,,2013-02-03 21:32:00,
2013-02-03 16:42:00,15.0,2.0,-100.00,NW,325,7.0,24.0,54,-99.99,,,-99.99,,2013-02-03 21:42:00,
2013-02-03 16:51:00,15.0,2.0,-100.00,NW,305,16.0,24.0,56,-99.99,,,-99.99,,2013-02-03 21:51:00,
2013-02-03 17:01:00,15.0,2.0,-100.00,NW,315,15.0,23.0,54,-99.99,,,-99.99,,2013-02-03 22:01:00,
2013-02-03 17:11:00,15.0,2.0,-100.00,NW,315,15.0,23.0,54,-99.99,,,-99.99,,2013-02-03 22:11:00,
2013-02-03 17:21:00,14.0,5.0,-100.00,North,355,11.0,18.0,65,-99.99,,,-99.99,,2013-02-03 22:21:00,
2013-02-03 17:32:00,13.0,3.0,-100.00,NW,325,6.0,14.0,64,-99.99,,,-99.99,,2013-02-03 22:32:00,
2013-02-03 17:42:00,13.0,3.0,-100.00,NW,325,6.0,14.0,64,-99.99,,,-99.99,,2013-02-03 22:42:00,
2013-02-03 17:51:00,12.0,2.0,-100.00,NW,315,5.0,11.0,63,-99.99,,,-99.99,,2013-02-03 22:51:00,
2013-02-03 18:01:00,13.0,4.0,-100.00,NNW,345,7.0,13.0,68,-99.99,,,-99.99,,2013-02-03 23:01:00,
2013-02-03 18:12:00,13.0,4.0,-100.00,NNW,345,7.0,13.0,68,-99.99,,,-99.99,,2013-02-03 23:12:00,
2013-02-03 18:22:00,12.0,4.0,-100.00,NNW,330,4.0,7.0,69,-99.99,,,-99.99,,2013-02-03 23:22:00,
2013-02-03 18:32:00,11.0,3.0,-100.00,NW,315,4.0,7.0,69,-99.99,,,-99.99,,2013-02-03 23:32:00,
2013-02-03 18:42:00,11.0,3.0,-100.00,NW,315,4.0,7.0,69,-99.99,,,-99.99,,2013-02-03 23:42:00,
2013-02-03 18:52:00,10.0,3.0,-100.00,NW,315,4.0,8.0,70,-99.99,,,-99.99,,2013-02-03 23:52:00,
2013-02-03 19:02:00,10.0,2.0,-100.00,NNW,335,4.0,7.0,71,-99.99,,,-99.99,,2013-02-04 00:02:00,
2013-02-03 19:11:00,10.0,2.0,-100.00,NNW,335,4.0,7.0,71,-99.99,,,-99.99,,2013-02-04 00:11:00,
2013-02-03 19:22:00,8.0,1.0,-100.00,WNW,295,4.0,6.0,72,-99.99,,,-99.99,,2013-02-04 00:22:00,
2013-02-03 19:32:00,7.0,1.0,-100.00,WNW,290,4.0,6.0,74,-99.99,,,-99.99,,2013-02-04 00:32:00,
2013-02-03 19:42:00,7.0,1.0,-100.00,WNW,290,4.0,6.0,74,-99.99,,,-99.99,,2013-02-04 00:42:00,
2013-02-03 19:51:00,7.0,0.0,-100.00,WNW,290,4.0,6.0,75,-99.99,,,-99.99,,2013-02-04 00:51:00,
2013-02-03 20:01:00,7.0,0.0,-100.00,WNW,290,4.0,6.0,75,-99.99,,,-99.99,,2013-02-04 01:01:00,
2013-02-03 20:21:00,8.0,2.0,-100.00,West,280,4.0,6.0,73,-99.99,,,-99.99,,2013-02-04 01:21:00,
2013-02-03 20:32:00,8.0,2.0,-100.00,WNW,285,3.0,5.0,75,-99.99,,,-99.99,,2013-02-04 01:32:00,
2013-02-03 20:41:00,8.0,2.0,-100.00,WNW,285,3.0,5.0,75,-99.99,,,-99.99,,2013-02-04 01:41:00,
2013-02-03 20:52:00,7.0,1.0,-100.00,West,280,3.0,4.0,76,-99.99,,,-99.99,,2013-02-04 01:52:00,
2013-02-03 21:02:00,7.0,2.0,-100.00,WNW,290,4.0,5.0,77,-99.99,,,-99.99,,2013-02-04 02:02:00,
2013-02-03 21:11:00,7.0,2.0,-100.00,WNW,290,4.0,5.0,77,-99.99,,,-99.99,,2013-02-04 02:11:00,
2013-02-03 21:21:00,7.0,1.0,-100.00,WNW,285,5.0,6.0,78,-99.99,,,-99.99,,2013-02-04 02:21:00,
2013-02-03 21:32:00,6.0,1.0,-100.00,West,275,4.0,4.0,79,-99.99,,,-99.99,,2013-02-04 02:32:00,
2013-02-03 21:41:00,6.0,1.0,-100.00,West,275,4.0,4.0,79,-99.99,,,-99.99,,2013-02-04 02:41:00,
2013-02-03 21:52:00,2.0,-2.0,-100.00,West,265,4.0,5.0,82,-99.99,,,-99.99,,2013-02-04 02:52:00,
2013-02-03 22:02:00,2.0,-2.0,-100.00,West,265,4.0,5.0,82,-99.99,,,-99.99,,2013-02-04 03:02:00,
2013-02-03 22:11:00,2.0,-2.0,-100.00,West,265,4.0,5.0,82,-99.99,,,-99.99,,2013-02-04 03:11:00,
2013-02-03 22:21:00,2.0,-2.0,-100.00,WNW,290,4.0,5.0,83,-99.99,,,-99.99,,2013-02-04 03:21:00,
2013-02-03 22:32:00,0.0,-4.0,-100.00,West,265,4.0,5.0,83,-99.99,,,-99.99,,2013-02-04 03:32:00,
2013-02-03 22:42:00,0.0,-4.0,-100.00,West,265,4.0,5.0,83,-99.99,,,-99.99,,2013-02-04 03:42:00,
2013-02-03 22:51:00,-2.0,-6.0,-100.00,West,270,4.0,5.0,83,-99.99,,,-99.99,,2013-02-04 03:51:00,
2013-02-03 23:01:00,-4.0,-8.0,-100.00,WSW,245,2.0,4.0,83,-99.99,,,-99.99,,2013-02-04 04:01:00,
2013-02-03 23:11:00,-4.0,-8.0,-100.00,WSW,245,2.0,4.0,83,-99.99,,,-99.99,,2013-02-04 04:11:00,
2013-02-03 23:21:00,-4.0,-8.0,-100.00,West,275,1.0,2.0,83,-99.99,,,-99.99,,2013-02-04 04:21:00,
2013-02-03 23:32:00,-6.0,-10.0,-100.00,WNW,300,1.0,1.0,82,-99.99,,,-99.99,,2013-02-04 04:32:00,
2013-02-03 23:42:00,-6.0,-10.0,-100.00,WNW,300,1.0,1.0,82,-99.99,,,-99.99,,2013-02-04 04:42:00,
2013-02-03 23:52:00,-6.0,-10.0,-100.00,West,280,4.0,6.0,82,-99.99,,,-99.99,,2013-02-04 04:52:00,